createdAt,value
2019-01-11T00:00:50.748Z,0.50
2019-01-11T00:03:19.418Z,0.50
2019-01-11T00:05:48.058Z,0.50
2019-01-11T00:08:16.770Z,0.50
2019-01-11T00:10:45.398Z,0.50
2019-01-11T00:13:14.627Z,0.40
2019-01-11T00:15:43.219Z,0.40
2019-01-11T00:18:11.869Z,0.40
2019-01-11T00:20:40.476Z,0.40
2019-01-11T00:23:09.063Z,0.40
2019-01-11T00:25:37.654Z,0.50
2019-01-11T00:28:06.213Z,0.50
2019-01-11T00:30:37.155Z,0.50
2019-01-11T00:33:06.137Z,0.50
2019-01-11T00:35:34.731Z,0.60
2019-01-11T00:38:03.685Z,0.50
2019-01-11T00:40:32.356Z,0.50
2019-01-11T00:43:01.262Z,0.50
2019-01-11T00:45:29.847Z,0.40
2019-01-11T00:47:58.494Z,0.50
2019-01-11T00:50:27.287Z,0.50
2019-01-11T00:52:55.842Z,0.40
2019-01-11T00:55:24.462Z,0.40
2019-01-11T00:57:53.071Z,0.50
2019-01-11T01:00:24.099Z,0.50
2019-01-11T01:02:52.928Z,0.40
2019-01-11T01:05:21.569Z,0.40
2019-01-11T01:07:50.369Z,0.40
2019-01-11T01:10:20.845Z,0.40
2019-01-11T01:12:49.559Z,0.40
2019-01-11T01:15:18.753Z,0.40
2019-01-11T01:17:47.763Z,0.50
2019-01-11T01:20:17.712Z,0.50
2019-01-11T01:22:46.446Z,0.50
2019-01-11T01:25:15.379Z,0.50
2019-01-11T01:27:44.063Z,0.50
2019-01-11T01:30:18.535Z,0.50
2019-01-11T01:32:47.198Z,0.40
2019-01-11T01:35:15.855Z,0.40
2019-01-11T01:37:44.998Z,0.40
2019-01-11T01:40:17.702Z,0.50
2019-01-11T01:42:46.577Z,0.50
2019-01-11T01:45:16.909Z,0.50
2019-01-11T01:47:45.737Z,0.50
2019-01-11T01:50:14.860Z,0.40
2019-01-11T01:52:43.539Z,0.40
2019-01-11T01:55:14.260Z,0.50
2019-01-11T01:57:42.882Z,0.50
2019-01-11T02:00:17.457Z,0.40
2019-01-11T02:02:47.448Z,0.40
2019-01-11T02:05:16.940Z,0.40
2019-01-11T02:07:45.615Z,0.50
2019-01-11T02:10:15.141Z,0.40
2019-01-11T02:12:43.728Z,0.40
2019-01-11T02:15:13.041Z,0.40
2019-01-11T02:17:41.828Z,0.40
2019-01-11T02:20:17.848Z,0.40
2019-01-11T02:22:46.561Z,0.30
2019-01-11T02:25:15.275Z,0.30
2019-01-11T02:27:43.996Z,0.40
2019-01-11T02:30:18.045Z,0.40
2019-01-11T02:32:52.541Z,0.40
2019-01-11T02:35:17.370Z,0.50
2019-01-11T02:37:46.026Z,0.40
2019-01-11T02:40:14.959Z,0.50
2019-01-11T02:42:43.642Z,0.50
2019-01-11T02:45:15.291Z,0.50
2019-01-11T02:47:43.964Z,0.40
2019-01-11T02:50:13.524Z,0.50
2019-01-11T02:52:42.311Z,0.50
2019-01-11T02:55:10.989Z,0.60
2019-01-11T02:57:39.661Z,0.60
2019-01-11T03:00:14.162Z,0.50
2019-01-11T03:02:42.852Z,0.50
2019-01-11T03:05:11.983Z,0.60
2019-01-11T03:07:41.326Z,0.50
2019-01-11T03:10:12.980Z,0.50
2019-01-11T03:12:41.589Z,0.60
2019-01-11T03:15:11.633Z,0.50
2019-01-11T03:17:40.378Z,0.50
2019-01-11T03:20:11.781Z,0.50
2019-01-11T03:22:40.393Z,0.40
2019-01-11T03:25:11.118Z,0.50
2019-01-11T03:27:39.711Z,0.50
2019-01-11T03:30:11.944Z,0.50
2019-01-11T03:32:40.496Z,0.60
2019-01-11T03:35:13.847Z,0.60
2019-01-11T03:37:43.115Z,0.50
2019-01-11T03:40:14.812Z,0.50
2019-01-11T03:42:43.516Z,0.50
2019-01-11T03:45:15.086Z,0.40
2019-01-11T03:47:43.754Z,0.50
2019-01-11T03:50:14.867Z,0.50
2019-01-11T03:52:43.479Z,0.50
2019-01-11T03:55:13.683Z,0.50
2019-01-11T03:57:42.375Z,0.60
2019-01-11T04:00:20.064Z,0.50
2019-01-11T04:02:48.783Z,0.50
2019-01-11T04:05:17.798Z,0.50
2019-01-11T04:07:46.517Z,0.50
2019-01-11T04:10:20.584Z,0.50
2019-01-11T04:12:49.691Z,0.60
2019-01-11T04:15:20.236Z,0.50
2019-01-11T04:17:51.413Z,0.50
2019-01-11T04:20:19.969Z,0.50
2019-01-11T04:22:53.017Z,0.50
2019-01-11T04:25:23.350Z,0.60
2019-01-11T04:27:52.699Z,0.60
2019-01-11T04:30:21.820Z,0.60
2019-01-11T04:32:50.566Z,0.60
2019-01-11T04:35:19.321Z,0.60
2019-01-11T04:37:48.032Z,0.50
2019-01-11T04:40:17.280Z,0.50
2019-01-11T04:42:45.855Z,0.50
2019-01-11T04:45:14.593Z,0.50
2019-01-11T04:47:43.267Z,0.50
2019-01-11T04:50:14.517Z,0.50
2019-01-11T04:52:43.125Z,0.50
2019-01-11T04:55:12.036Z,0.50
2019-01-11T04:57:40.624Z,0.50
2019-01-11T05:00:20.550Z,0.50
2019-01-11T05:02:49.194Z,0.50
2019-01-11T05:05:18.077Z,0.60
2019-01-11T05:07:46.675Z,0.60
2019-01-11T05:10:17.220Z,0.50
2019-01-11T05:12:45.798Z,0.60
2019-01-11T05:15:14.482Z,0.60
2019-01-11T05:17:43.130Z,0.60
2019-01-11T05:20:16.792Z,0.60
2019-01-11T05:22:43.619Z,0.60
2019-01-11T05:25:12.593Z,0.60
2019-01-11T05:27:41.171Z,0.60
2019-01-11T05:30:12.880Z,0.60
2019-01-11T05:32:41.529Z,0.60
2019-01-11T05:35:10.653Z,0.60
2019-01-11T05:37:39.296Z,0.60
2019-01-11T05:40:11.097Z,0.70
2019-01-11T05:42:40.081Z,0.60
2019-01-11T05:45:09.489Z,0.70
2019-01-11T05:47:38.093Z,0.60
2019-01-11T05:50:09.751Z,0.60
2019-01-11T05:52:38.423Z,0.60
2019-01-11T05:55:09.706Z,0.70
2019-01-11T05:57:39.903Z,0.60
2019-01-11T06:00:10.659Z,0.70
2019-01-11T06:02:39.235Z,0.70
2019-01-11T06:05:09.479Z,0.70
2019-01-11T06:07:39.550Z,0.70
2019-01-11T06:10:11.360Z,0.70
2019-01-11T06:12:40.261Z,0.70
2019-01-11T06:15:09.432Z,0.70
2019-01-11T06:17:38.012Z,0.70
2019-01-11T06:20:09.662Z,0.70
2019-01-11T06:22:38.299Z,0.70
2019-01-11T06:25:07.044Z,0.70
2019-01-11T06:27:35.743Z,0.70
2019-01-11T06:30:10.599Z,0.70
2019-01-11T06:32:39.186Z,0.70
2019-01-11T06:35:08.180Z,0.70
2019-01-11T06:37:36.760Z,0.70
2019-01-11T06:40:08.356Z,0.70
2019-01-11T06:42:36.893Z,0.70
2019-01-11T06:45:08.254Z,0.70
2019-01-11T06:47:37.022Z,0.70
2019-01-11T06:50:16.543Z,0.70
2019-01-11T06:52:45.099Z,0.80
2019-01-11T06:55:13.845Z,0.70
2019-01-11T06:57:42.429Z,0.70
2019-01-11T07:00:18.656Z,0.70
2019-01-11T07:02:47.337Z,0.80
2019-01-11T07:05:15.907Z,0.80
2019-01-11T07:07:44.956Z,0.70
2019-01-11T07:10:19.393Z,0.80
2019-01-11T07:12:48.135Z,0.70
2019-01-11T07:15:17.042Z,0.70
2019-01-11T07:17:45.647Z,0.70
2019-01-11T07:20:15.175Z,0.70
2019-01-11T07:22:43.763Z,0.70
2019-01-11T07:25:14.187Z,2.00
2019-01-11T07:27:44.443Z,0.80
2019-01-11T07:30:15.219Z,0.80
2019-01-11T07:32:44.046Z,0.80
2019-01-11T07:35:13.314Z,0.80
2019-01-11T07:37:41.946Z,0.80
2019-01-11T07:40:12.247Z,0.80
2019-01-11T07:42:40.848Z,0.80
2019-01-11T07:45:13.626Z,0.90
2019-01-11T07:47:42.246Z,0.80
2019-01-11T07:50:11.453Z,0.90
2019-01-11T07:52:40.285Z,0.80
2019-01-11T07:55:10.442Z,0.80
2019-01-11T07:57:39.058Z,0.80
2019-01-11T08:00:10.867Z,0.80
2019-01-11T08:02:39.650Z,0.80
2019-01-11T08:05:09.083Z,0.80
2019-01-11T08:07:37.689Z,0.80
2019-01-11T08:10:09.389Z,0.80
2019-01-11T08:12:38.361Z,0.80
2019-01-11T08:15:12.558Z,0.90
2019-01-11T08:17:41.226Z,0.90
2019-01-11T08:20:09.971Z,0.90
2019-01-11T08:22:43.047Z,0.90
2019-01-11T08:25:13.656Z,0.90
2019-01-11T08:27:42.654Z,0.90
2019-01-11T08:30:17.762Z,0.90
2019-01-11T08:32:46.366Z,0.90
2019-01-11T08:35:15.766Z,1.00
2019-01-11T08:37:44.455Z,1.00
2019-01-11T08:40:13.368Z,1.00
2019-01-11T08:42:41.965Z,1.00
2019-01-11T08:45:13.905Z,1.00
2019-01-11T08:47:42.658Z,1.10
2019-01-11T08:50:17.537Z,1.00
2019-01-11T08:52:46.528Z,1.00
2019-01-11T08:55:15.123Z,1.00
2019-01-11T08:57:43.874Z,1.00
2019-01-11T09:00:15.145Z,1.00
2019-01-11T09:02:43.824Z,1.00
2019-01-11T09:05:12.407Z,1.00
2019-01-11T09:07:41.031Z,1.00
2019-01-11T09:10:22.810Z,1.00
2019-01-11T09:12:48.834Z,1.00
2019-01-11T09:15:17.483Z,1.00
2019-01-11T09:18:02.761Z,1.00
2019-01-11T09:20:31.436Z,1.00
2019-01-11T09:23:00.469Z,0.90
2019-01-11T09:25:29.041Z,1.00
2019-01-11T09:27:57.643Z,1.00
2019-01-11T09:30:26.216Z,1.00
2019-01-11T09:32:54.971Z,1.00
2019-01-11T09:35:24.146Z,1.10
2019-01-11T09:37:53.342Z,1.20
2019-01-11T09:40:22.036Z,1.20
2019-01-11T09:42:50.982Z,1.20
2019-01-11T09:45:19.652Z,1.10
2019-01-11T09:47:48.222Z,1.20
2019-01-11T09:50:16.828Z,1.20
2019-01-11T09:52:45.410Z,1.20
2019-01-11T09:55:14.335Z,1.20
2019-01-11T09:57:44.812Z,1.20
2019-01-11T10:00:19.704Z,1.20
2019-01-11T10:02:50.203Z,1.20
2019-01-11T10:05:18.895Z,1.30
2019-01-11T10:07:47.531Z,1.30
2019-01-11T10:10:16.276Z,1.30
2019-01-11T10:12:45.985Z,1.30
2019-01-11T10:15:16.268Z,1.30
2019-01-11T10:17:46.641Z,1.40
2019-01-11T10:20:15.757Z,1.40
2019-01-11T10:22:44.357Z,1.40
2019-01-11T10:25:13.127Z,1.40
2019-01-11T10:27:41.703Z,1.40
2019-01-11T10:30:18.463Z,1.40
2019-01-11T10:32:47.357Z,1.50
2019-01-11T10:35:16.013Z,1.50
2019-01-11T10:37:45.038Z,1.50
2019-01-11T10:40:16.903Z,1.50
2019-01-11T10:42:45.983Z,1.50
2019-01-11T10:45:20.090Z,1.50
2019-01-11T10:47:48.672Z,1.50
2019-01-11T10:50:17.935Z,1.50
2019-01-11T10:52:46.662Z,1.60
2019-01-11T10:55:16.630Z,1.70
2019-01-11T10:57:45.737Z,1.70
2019-01-11T11:00:20.791Z,1.80
2019-01-11T11:02:50.639Z,1.80
2019-01-11T11:05:19.858Z,1.80
2019-01-11T11:07:48.886Z,1.80
2019-01-11T11:10:17.627Z,1.80
2019-01-11T11:12:46.619Z,1.90
2019-01-11T11:15:17.625Z,1.90
2019-01-11T11:17:46.849Z,1.90
2019-01-11T11:20:17.396Z,2.00
2019-01-11T11:22:46.124Z,2.00
2019-01-11T11:25:19.750Z,2.10
2019-01-11T11:27:48.776Z,2.10
2019-01-11T11:30:19.106Z,2.10
2019-01-11T11:32:52.037Z,2.10
2019-01-11T11:35:20.725Z,2.20
2019-01-11T11:37:49.436Z,2.20
2019-01-11T11:40:18.127Z,2.20
2019-01-11T11:42:46.875Z,2.20
2019-01-11T11:45:16.108Z,2.30
2019-01-11T11:47:44.728Z,2.30
2019-01-11T11:50:13.540Z,2.30
2019-01-11T11:52:45.163Z,2.30
2019-01-11T11:55:13.740Z,2.40
2019-01-11T11:57:42.363Z,2.40
2019-01-11T12:00:16.766Z,2.40
2019-01-11T12:02:45.329Z,2.40
2019-01-11T12:05:14.043Z,2.40
2019-01-11T12:07:42.729Z,2.50
2019-01-11T12:10:13.855Z,2.50
2019-01-11T12:12:42.532Z,2.50
2019-01-11T12:15:13.055Z,2.50
2019-01-11T12:17:41.823Z,2.50
2019-01-11T12:20:13.474Z,2.60
2019-01-11T12:22:42.150Z,2.60
2019-01-11T12:25:10.737Z,2.60
2019-01-11T12:27:40.413Z,2.60
2019-01-11T12:30:12.016Z,2.60
2019-01-11T12:32:40.606Z,2.60
2019-01-11T12:35:09.276Z,2.70
2019-01-11T12:37:37.906Z,2.70
2019-01-11T12:40:11.766Z,2.70
2019-01-11T12:42:40.306Z,2.80
2019-01-11T12:45:11.723Z,2.80
2019-01-11T12:47:40.377Z,2.80
2019-01-11T12:50:12.364Z,2.80
2019-01-11T12:52:40.980Z,2.80
2019-01-11T12:55:09.581Z,2.90
2019-01-11T12:57:38.354Z,2.90
2019-01-11T13:00:10.214Z,3.00
2019-01-11T13:02:38.870Z,3.00
2019-01-11T13:05:10.254Z,3.00
2019-01-11T13:07:38.961Z,4.50
2019-01-11T13:10:10.956Z,3.00
2019-01-11T13:12:39.650Z,3.00
2019-01-11T13:15:11.573Z,3.00
2019-01-11T13:17:40.285Z,3.10
2019-01-11T13:20:12.255Z,3.10
2019-01-11T13:22:43.413Z,3.10
2019-01-11T13:25:12.151Z,3.10
2019-01-11T13:27:40.851Z,3.10
2019-01-11T13:30:13.068Z,3.20
2019-01-11T13:32:41.729Z,3.20
2019-01-11T13:35:10.462Z,3.20
2019-01-11T13:37:39.444Z,3.30
2019-01-11T13:40:13.743Z,3.30
2019-01-11T13:42:42.421Z,3.30
2019-01-11T13:45:11.661Z,3.40
2019-01-11T13:47:43.278Z,3.40
2019-01-11T13:50:14.987Z,3.40
2019-01-11T13:52:46.836Z,3.40
2019-01-11T13:55:15.527Z,3.50
2019-01-11T13:57:44.228Z,3.50
2019-01-11T14:00:14.752Z,3.60
2019-01-11T14:02:43.631Z,3.60
2019-01-11T14:05:13.563Z,3.60
2019-01-11T14:07:42.506Z,3.60
2019-01-11T14:10:11.098Z,3.70
2019-01-11T14:12:41.056Z,3.60
2019-01-11T14:15:11.767Z,3.80
2019-01-11T14:17:40.350Z,3.80
2019-01-11T14:20:11.027Z,3.90
2019-01-11T14:22:39.640Z,3.90
2019-01-11T14:25:10.822Z,3.80
2019-01-11T14:27:39.504Z,3.90
2019-01-11T14:30:19.586Z,3.90
2019-01-11T14:32:48.637Z,3.90
2019-01-11T14:35:17.226Z,4.00
2019-01-11T14:37:45.912Z,4.00
2019-01-11T14:40:16.682Z,4.00
2019-01-11T14:42:46.428Z,4.10
2019-01-11T14:45:16.961Z,4.20
2019-01-11T14:47:46.790Z,4.10
2019-01-11T14:50:17.872Z,4.10
2019-01-11T14:52:46.922Z,4.20
2019-01-11T14:55:15.592Z,4.30
2019-01-11T14:57:44.174Z,4.30
2019-01-11T15:00:21.354Z,4.20
2019-01-11T15:02:50.373Z,4.30
2019-01-11T15:05:19.932Z,4.30
2019-01-11T15:07:49.014Z,4.30
2019-01-11T15:10:17.733Z,4.30
2019-01-11T15:12:47.746Z,4.40
2019-01-11T15:15:16.485Z,4.40
2019-01-11T15:17:45.127Z,4.40
2019-01-11T15:20:15.901Z,4.40
2019-01-11T15:22:44.653Z,4.50
2019-01-11T15:25:13.427Z,4.50
2019-01-11T15:27:41.994Z,4.50
2019-01-11T15:30:18.187Z,4.60
2019-01-11T15:32:46.829Z,4.60
2019-01-11T15:35:15.592Z,4.60
2019-01-11T15:37:44.624Z,4.60
2019-01-11T15:40:16.628Z,4.60
2019-01-11T15:42:45.220Z,4.60
2019-01-11T15:45:14.111Z,4.60
2019-01-11T15:47:42.716Z,4.60
2019-01-11T15:50:31.009Z,4.70
2019-01-11T15:52:59.732Z,4.70
2019-01-11T15:55:28.336Z,4.70
2019-01-11T15:57:56.926Z,4.70
2019-01-11T16:00:25.560Z,4.70
2019-01-11T16:02:54.116Z,4.80
2019-01-11T16:05:22.836Z,4.80
2019-01-11T16:07:51.418Z,4.80
2019-01-11T16:10:21.152Z,4.80
2019-01-11T16:12:50.706Z,4.80
2019-01-11T16:15:34.685Z,4.90
2019-01-11T16:18:06.372Z,4.90
2019-01-11T16:20:35.860Z,5.00
2019-01-11T16:23:04.565Z,5.00
2019-01-11T16:25:33.614Z,5.00
2019-01-11T16:28:02.572Z,5.00
2019-01-11T16:30:31.171Z,5.10
2019-01-11T16:32:59.795Z,5.10
2019-01-11T16:35:28.728Z,5.20
2019-01-11T16:37:57.332Z,5.20
2019-01-11T16:40:26.002Z,5.20
2019-01-11T16:42:54.572Z,5.20
2019-01-11T16:45:23.185Z,5.20
2019-01-11T16:47:51.805Z,5.30
2019-01-11T16:50:21.115Z,5.30
2019-01-11T16:52:49.692Z,5.30
2019-01-11T16:55:18.317Z,5.30
2019-01-11T16:57:46.923Z,5.30
2019-01-11T17:00:23.489Z,5.40
2019-01-11T17:02:52.123Z,5.40
2019-01-11T17:05:20.703Z,5.40
2019-01-11T17:07:49.314Z,5.40
2019-01-11T17:10:17.866Z,5.40
2019-01-11T17:12:46.505Z,5.40
2019-01-11T17:15:18.163Z,5.40
2019-01-11T17:17:46.766Z,5.50
2019-01-11T17:20:17.074Z,5.50
2019-01-11T17:22:45.751Z,5.50
2019-01-11T17:25:14.394Z,5.50
2019-01-11T17:27:43.142Z,5.60
2019-01-11T17:30:16.718Z,5.60
2019-01-11T17:32:45.364Z,5.60
2019-01-11T17:35:13.905Z,5.60
2019-01-11T17:37:42.506Z,5.70
2019-01-11T17:40:12.230Z,5.70
2019-01-11T17:42:40.838Z,5.70
2019-01-11T17:45:11.809Z,5.70
2019-01-11T17:47:40.396Z,5.80
2019-01-11T17:50:14.062Z,5.80
2019-01-11T17:52:43.451Z,5.70
2019-01-11T17:55:12.201Z,5.80
2019-01-11T17:57:41.543Z,5.80
2019-01-11T18:00:13.128Z,5.80
2019-01-11T18:02:41.801Z,5.80
2019-01-11T18:05:12.409Z,5.80
2019-01-11T18:07:41.418Z,5.80
2019-01-11T18:10:11.286Z,5.90
2019-01-11T18:12:40.234Z,5.90
2019-01-11T18:15:11.818Z,5.90
2019-01-11T18:17:40.403Z,6.00
2019-01-11T18:20:12.336Z,6.00
2019-01-11T18:22:40.994Z,6.00
2019-01-11T18:25:09.646Z,6.00
2019-01-11T18:27:38.640Z,6.00
2019-01-11T18:30:10.619Z,6.00
2019-01-11T18:32:39.237Z,6.00
2019-01-11T18:35:07.934Z,6.00
2019-01-11T18:37:36.699Z,6.00
2019-01-11T18:40:13.623Z,5.90
2019-01-11T18:42:42.234Z,6.00
2019-01-11T18:45:10.947Z,5.90
2019-01-11T18:47:39.579Z,6.00
2019-01-11T18:50:15.029Z,6.00
2019-01-11T18:52:43.643Z,5.90
2019-01-11T18:55:12.370Z,5.90
2019-01-11T18:57:41.043Z,5.90
2019-01-11T19:00:18.672Z,5.90
2019-01-11T19:02:47.417Z,5.90
2019-01-11T19:05:16.436Z,5.90
2019-01-11T19:07:46.224Z,6.00
2019-01-11T19:10:17.152Z,5.90
2019-01-11T19:12:46.119Z,6.00
2019-01-11T19:15:17.243Z,5.90
2019-01-11T19:17:46.370Z,5.90
2019-01-11T19:20:17.523Z,5.90
2019-01-11T19:22:46.241Z,5.90
2019-01-11T19:25:24.054Z,5.90
2019-01-11T19:27:52.824Z,5.90
2019-01-11T19:30:26.365Z,5.90
2019-01-11T19:32:55.431Z,5.90
2019-01-11T19:35:24.209Z,5.90
2019-01-11T19:37:52.818Z,5.90
2019-01-11T19:40:21.456Z,5.90
2019-01-11T19:42:50.036Z,5.90
2019-01-11T19:45:18.714Z,5.90
2019-01-11T19:47:47.366Z,5.90
2019-01-11T19:50:18.109Z,5.90
2019-01-11T19:52:47.631Z,5.90
2019-01-11T19:55:18.005Z,5.80
2019-01-11T19:57:46.583Z,5.90
2019-01-11T20:00:17.997Z,5.80
2019-01-11T20:02:47.120Z,5.90
2019-01-11T20:05:16.174Z,5.90
2019-01-11T20:07:44.742Z,5.90
2019-01-11T20:10:19.105Z,5.90
2019-01-11T20:12:47.678Z,5.80
2019-01-11T20:15:16.350Z,5.80
2019-01-11T20:17:45.034Z,5.90
2019-01-11T20:20:14.870Z,5.80
2019-01-11T20:22:43.739Z,5.80
2019-01-11T20:25:17.463Z,5.80
2019-01-11T20:27:46.879Z,5.80
2019-01-11T20:30:18.057Z,5.80
2019-01-11T20:32:46.886Z,5.80
2019-01-11T20:35:15.910Z,5.80
2019-01-11T20:37:44.607Z,5.80
2019-01-11T20:40:15.267Z,5.80
2019-01-11T20:42:45.057Z,5.80
2019-01-11T20:45:18.455Z,5.80
2019-01-11T20:47:47.035Z,5.80
2019-01-11T20:50:18.255Z,5.80
2019-01-11T20:52:47.694Z,5.80
2019-01-11T20:55:16.438Z,5.80
2019-01-11T20:57:45.446Z,5.80
2019-01-11T21:00:17.800Z,5.80
2019-01-11T21:02:46.524Z,5.80
2019-01-11T21:05:15.778Z,5.70
2019-01-11T21:07:44.445Z,5.80
2019-01-11T21:10:14.951Z,5.80
2019-01-11T21:12:43.594Z,5.80
2019-01-11T21:15:15.102Z,5.80
2019-01-11T21:17:43.756Z,5.80
2019-01-11T21:20:15.098Z,5.80
2019-01-11T21:22:44.340Z,5.80
2019-01-11T21:25:15.454Z,5.80
2019-01-11T21:27:44.129Z,5.70
2019-01-11T21:30:24.748Z,5.80
2019-01-11T21:32:53.634Z,5.70
2019-01-11T21:35:22.697Z,5.70
2019-01-11T21:37:51.626Z,5.60
2019-01-11T21:40:21.029Z,5.70
2019-01-11T21:42:50.150Z,5.70
2019-01-11T21:45:19.171Z,5.70
2019-01-11T21:47:47.889Z,5.70
2019-01-11T21:50:18.616Z,5.70
2019-01-11T21:52:47.314Z,5.70
2019-01-11T21:55:16.266Z,5.70
2019-01-11T21:57:45.620Z,5.70
2019-01-11T22:00:17.338Z,5.70
2019-01-11T22:02:46.296Z,5.70
2019-01-11T22:05:15.020Z,5.70
2019-01-11T22:07:43.655Z,5.70
2019-01-11T22:10:14.860Z,5.70
2019-01-11T22:12:43.449Z,5.60
2019-01-11T22:15:15.167Z,5.60
2019-01-11T22:17:44.063Z,5.60
2019-01-11T22:20:15.019Z,5.70
2019-01-11T22:22:44.066Z,5.70
2019-01-11T22:25:16.735Z,5.70
2019-01-11T22:27:46.361Z,5.70
2019-01-11T22:30:20.489Z,5.60
2019-01-11T22:32:49.140Z,5.60
2019-01-11T22:35:18.508Z,5.60
2019-01-11T22:37:47.652Z,5.60
2019-01-11T22:40:18.261Z,5.60
2019-01-11T22:42:47.738Z,5.60
2019-01-11T22:45:16.331Z,5.60
2019-01-11T22:47:45.035Z,5.60
2019-01-11T22:50:16.675Z,5.60
2019-01-11T22:52:45.337Z,5.60
2019-01-11T22:55:16.458Z,5.60
2019-01-11T22:57:45.145Z,5.60
2019-01-11T23:00:45.748Z,5.60
2019-01-11T23:03:26.614Z,5.60
2019-01-11T23:06:01.019Z,5.50
2019-01-11T23:08:29.627Z,5.60
2019-01-11T23:11:12.542Z,5.50
2019-01-11T23:13:41.138Z,5.50
2019-01-11T23:16:12.702Z,5.50
2019-01-11T23:18:41.354Z,5.50
2019-01-11T23:21:10.100Z,5.50
2019-01-11T23:23:38.686Z,5.60
2019-01-11T23:26:07.320Z,5.60
2019-01-11T23:28:35.959Z,5.50
2019-01-11T23:31:04.860Z,5.50
2019-01-11T23:33:33.463Z,5.50
2019-01-11T23:36:02.314Z,5.50
2019-01-11T23:38:31.302Z,5.50
2019-01-11T23:40:59.871Z,5.40
2019-01-11T23:43:28.806Z,5.40
2019-01-11T23:45:57.429Z,5.50
2019-01-11T23:48:26.591Z,5.50
2019-01-11T23:50:55.488Z,5.40
2019-01-11T23:53:24.094Z,5.40
2019-01-11T23:55:52.693Z,5.40
2019-01-11T23:58:21.870Z,5.40
